sensor_id;sensor_type;location;lat;lon;timestamp;temperature;humidity
4795;DHT22;2411;47.060;15.064;2024-01-07T00:00:25;4.10;45.80
4795;DHT22;2411;47.060;15.064;2024-01-07T00:02:53;4.00;65.00
4795;DHT22;2411;47.060;15.064;2024-01-07T00:05:20;4.00;88.10
4795;DHT22;2411;47.060;15.064;2024-01-07T00:07:47;4.10;71.10
4795;DHT22;2411;47.060;15.064;2024-01-07T00:10:16;4.10;54.00
4795;DHT22;2411;47.060;15.064;2024-01-07T00:12:44;4.10;56.80
4795;DHT22;2411;47.060;15.064;2024-01-07T00:15:11;4.10;51.70
4795;DHT22;2411;47.060;15.064;2024-01-07T00:17:38;4.10;39.50
4795;DHT22;2411;47.060;15.064;2024-01-07T00:20:06;4.10;40.90
4795;DHT22;2411;47.060;15.064;2024-01-07T00:22:33;4.10;71.70
4795;DHT22;2411;47.060;15.064;2024-01-07T00:25:01;4.10;44.10
4795;DHT22;2411;47.060;15.064;2024-01-07T00:27:28;4.10;50.20
4795;DHT22;2411;47.060;15.064;2024-01-07T00:29:55;4.10;55.70
4795;DHT22;2411;47.060;15.064;2024-01-07T00:32:22;4.00;57.00
4795;DHT22;2411;47.060;15.064;2024-01-07T00:34:50;4.00;72.10
4795;DHT22;2411;47.060;15.064;2024-01-07T00:37:21;4.10;92.30
4795;DHT22;2411;47.060;15.064;2024-01-07T00:39:48;4.00;74.60
4795;DHT22;2411;47.060;15.064;2024-01-07T00:42:16;4.00;72.80
4795;DHT22;2411;47.060;15.064;2024-01-07T00:44:43;4.00;78.00
4795;DHT22;2411;47.060;15.064;2024-01-07T00:47:10;4.00;87.90
4795;DHT22;2411;47.060;15.064;2024-01-07T00:49:37;3.90;75.30
4795;DHT22;2411;47.060;15.064;2024-01-07T00:52:06;3.90;99.90
4795;DHT22;2411;47.060;15.064;2024-01-07T00:54:34;3.90;99.90
4795;DHT22;2411;47.060;15.064;2024-01-07T00:57:01;3.90;99.90
4795;DHT22;2411;47.060;15.064;2024-01-07T00:59:29;3.90;99.90
4795;DHT22;2411;47.060;15.064;2024-01-07T01:01:56;3.90;99.90
4795;DHT22;2411;47.060;15.064;2024-01-07T01:04:24;3.90;99.90
4795;DHT22;2411;47.060;15.064;2024-01-07T01:06:51;4.00;99.90
4795;DHT22;2411;47.060;15.064;2024-01-07T01:09:18;4.00;97.00
4795;DHT22;2411;47.060;15.064;2024-01-07T01:11:45;3.90;99.50
4795;DHT22;2411;47.060;15.064;2024-01-07T01:14:13;3.90;98.40
4795;DHT22;2411;47.060;15.064;2024-01-07T01:16:40;3.90;99.90
4795;DHT22;2411;47.060;15.064;2024-01-07T01:19:07;4.00;6.60
4795;DHT22;2411;47.060;15.064;2024-01-07T01:21:36;3.90;9.10
4795;DHT22;2411;47.060;15.064;2024-01-07T01:24:03;3.90;28.70
4795;DHT22;2411;47.060;15.064;2024-01-07T01:26:30;4.00;23.40
4795;DHT22;2411;47.060;15.064;2024-01-07T01:28:57;4.00;23.80
4795;DHT22;2411;47.060;15.064;2024-01-07T01:31:25;4.00;26.80
4795;DHT22;2411;47.060;15.064;2024-01-07T01:33:52;4.00;41.10
4795;DHT22;2411;47.060;15.064;2024-01-07T01:36:19;4.00;33.10
4795;DHT22;2411;47.060;15.064;2024-01-07T01:38:46;4.00;25.10
4795;DHT22;2411;47.060;15.064;2024-01-07T01:41:18;4.00;2.20
4795;DHT22;2411;47.060;15.064;2024-01-07T01:43:45;4.00;1.00
4795;DHT22;2411;47.060;15.064;2024-01-07T01:46:13;4.10;1.00
4795;DHT22;2411;47.060;15.064;2024-01-07T01:48:42;4.10;1.00
4795;DHT22;2411;47.060;15.064;2024-01-07T01:51:10;4.10;1.00
4795;DHT22;2411;47.060;15.064;2024-01-07T01:53:37;4.10;1.00
4795;DHT22;2411;47.060;15.064;2024-01-07T01:56:05;4.10;1.00
4795;DHT22;2411;47.060;15.064;2024-01-07T01:58:34;4.10;1.00
4795;DHT22;2411;47.060;15.064;2024-01-07T02:01:02;4.10;1.00
4795;DHT22;2411;47.060;15.064;2024-01-07T02:03:30;4.20;1.00
4795;DHT22;2411;47.060;15.064;2024-01-07T02:05:58;4.20;1.00
4795;DHT22;2411;47.060;15.064;2024-01-07T02:08:25;4.40;1.00
4795;DHT22;2411;47.060;15.064;2024-01-07T02:10:53;4.40;1.00
4795;DHT22;2411;47.060;15.064;2024-01-07T02:13:20;4.40;1.00
4795;DHT22;2411;47.060;15.064;2024-01-07T02:15:47;4.50;1.00
4795;DHT22;2411;47.060;15.064;2024-01-07T02:18:15;4.40;1.00
4795;DHT22;2411;47.060;15.064;2024-01-07T02:20:42;4.50;1.00
4795;DHT22;2411;47.060;15.064;2024-01-07T02:23:09;4.40;1.00
4795;DHT22;2411;47.060;15.064;2024-01-07T02:25:37;4.30;1.00
4795;DHT22;2411;47.060;15.064;2024-01-07T02:28:05;4.30;1.00
4795;DHT22;2411;47.060;15.064;2024-01-07T02:30:33;4.20;1.00
4795;DHT22;2411;47.060;15.064;2024-01-07T02:33:04;4.20;1.00
4795;DHT22;2411;47.060;15.064;2024-01-07T02:35:31;4.20;1.00
4795;DHT22;2411;47.060;15.064;2024-01-07T02:37:59;4.20;1.00
4795;DHT22;2411;47.060;15.064;2024-01-07T02:40:26;4.10;1.00
4795;DHT22;2411;47.060;15.064;2024-01-07T02:42:53;4.20;1.00
4795;DHT22;2411;47.060;15.064;2024-01-07T02:45:23;4.10;1.00
4795;DHT22;2411;47.060;15.064;2024-01-07T02:47:50;4.00;1.00
4795;DHT22;2411;47.060;15.064;2024-01-07T02:50:17;4.00;1.00
4795;DHT22;2411;47.060;15.064;2024-01-07T02:52:44;4.00;1.00
4795;DHT22;2411;47.060;15.064;2024-01-07T02:55:12;4.00;1.00
4795;DHT22;2411;47.060;15.064;2024-01-07T02:57:39;4.00;1.00
4795;DHT22;2411;47.060;15.064;2024-01-07T03:00:07;4.00;1.00
4795;DHT22;2411;47.060;15.064;2024-01-07T03:02:34;4.10;1.00
4795;DHT22;2411;47.060;15.064;2024-01-07T03:05:02;4.00;1.00
4795;DHT22;2411;47.060;15.064;2024-01-07T03:07:29;4.10;1.00
4795;DHT22;2411;47.060;15.064;2024-01-07T03:09:56;4.10;1.00
4795;DHT22;2411;47.060;15.064;2024-01-07T03:12:24;4.20;1.00
4795;DHT22;2411;47.060;15.064;2024-01-07T03:14:51;4.40;1.00
4795;DHT22;2411;47.060;15.064;2024-01-07T03:17:18;4.60;1.00
4795;DHT22;2411;47.060;15.064;2024-01-07T03:19:45;4.70;1.00
4795;DHT22;2411;47.060;15.064;2024-01-07T03:22:13;4.80;1.00
4795;DHT22;2411;47.060;15.064;2024-01-07T03:24:41;4.90;1.00
4795;DHT22;2411;47.060;15.064;2024-01-07T03:27:09;5.00;1.00
4795;DHT22;2411;47.060;15.064;2024-01-07T03:29:36;5.00;1.00
4795;DHT22;2411;47.060;15.064;2024-01-07T03:32:04;5.10;1.00
4795;DHT22;2411;47.060;15.064;2024-01-07T03:34:31;5.00;1.00
4795;DHT22;2411;47.060;15.064;2024-01-07T03:36:58;5.00;1.00
4795;DHT22;2411;47.060;15.064;2024-01-07T03:39:26;5.10;1.00
4795;DHT22;2411;47.060;15.064;2024-01-07T03:41:56;5.10;1.00
4795;DHT22;2411;47.060;15.064;2024-01-07T03:44:23;5.10;1.00
4795;DHT22;2411;47.060;15.064;2024-01-07T03:46:50;5.10;1.00
4795;DHT22;2411;47.060;15.064;2024-01-07T03:49:18;5.00;1.00
4795;DHT22;2411;47.060;15.064;2024-01-07T03:51:45;5.10;1.00
4795;DHT22;2411;47.060;15.064;2024-01-07T03:54:12;5.10;1.00
4795;DHT22;2411;47.060;15.064;2024-01-07T03:56:39;5.00;1.00
4795;DHT22;2411;47.060;15.064;2024-01-07T03:59:07;5.10;1.00
4795;DHT22;2411;47.060;15.064;2024-01-07T04:01:34;5.10;1.00
4795;DHT22;2411;47.060;15.064;2024-01-07T04:04:02;5.10;1.00
4795;DHT22;2411;47.060;15.064;2024-01-07T04:06:29;5.10;1.00
4795;DHT22;2411;47.060;15.064;2024-01-07T04:08:57;5.10;1.00
4795;DHT22;2411;47.060;15.064;2024-01-07T04:11:24;5.00;1.00
4795;DHT22;2411;47.060;15.064;2024-01-07T04:13:51;5.00;1.00
4795;DHT22;2411;47.060;15.064;2024-01-07T04:16:19;4.90;1.00
4795;DHT22;2411;47.060;15.064;2024-01-07T04:18:47;4.90;1.00
4795;DHT22;2411;47.060;15.064;2024-01-07T04:21:20;4.90;1.00
4795;DHT22;2411;47.060;15.064;2024-01-07T04:23:48;4.90;1.00
4795;DHT22;2411;47.060;15.064;2024-01-07T04:26:15;4.90;1.00
4795;DHT22;2411;47.060;15.064;2024-01-07T04:28:42;4.90;1.00
4795;DHT22;2411;47.060;15.064;2024-01-07T04:31:10;4.80;1.00
4795;DHT22;2411;47.060;15.064;2024-01-07T04:33:37;4.80;1.00
4795;DHT22;2411;47.060;15.064;2024-01-07T04:36:05;4.80;1.00
4795;DHT22;2411;47.060;15.064;2024-01-07T04:38:32;4.80;1.00
4795;DHT22;2411;47.060;15.064;2024-01-07T04:41:00;4.70;1.00
4795;DHT22;2411;47.060;15.064;2024-01-07T04:43:27;4.60;1.00
4795;DHT22;2411;47.060;15.064;2024-01-07T04:45:55;4.60;1.00
4795;DHT22;2411;47.060;15.064;2024-01-07T04:48:22;4.60;1.00
4795;DHT22;2411;47.060;15.064;2024-01-07T04:50:50;4.60;1.00
4795;DHT22;2411;47.060;15.064;2024-01-07T04:53:17;4.50;1.00
4795;DHT22;2411;47.060;15.064;2024-01-07T04:55:44;4.50;1.00
4795;DHT22;2411;47.060;15.064;2024-01-07T04:58:11;4.50;1.00
4795;DHT22;2411;47.060;15.064;2024-01-07T05:00:39;4.40;1.00
4795;DHT22;2411;47.060;15.064;2024-01-07T05:03:06;4.40;1.00
4795;DHT22;2411;47.060;15.064;2024-01-07T05:05:33;4.30;1.00
4795;DHT22;2411;47.060;15.064;2024-01-07T05:08:03;4.40;1.00
4795;DHT22;2411;47.060;15.064;2024-01-07T05:10:30;4.40;1.00
4795;DHT22;2411;47.060;15.064;2024-01-07T05:12:57;4.30;1.00
4795;DHT22;2411;47.060;15.064;2024-01-07T05:15:25;4.30;1.00
4795;DHT22;2411;47.060;15.064;2024-01-07T05:17:52;4.20;1.00
4795;DHT22;2411;47.060;15.064;2024-01-07T05:20:19;4.20;1.00
4795;DHT22;2411;47.060;15.064;2024-01-07T05:22:46;4.30;1.00
4795;DHT22;2411;47.060;15.064;2024-01-07T05:25:14;4.30;1.00
4795;DHT22;2411;47.060;15.064;2024-01-07T05:27:47;4.30;1.00
4795;DHT22;2411;47.060;15.064;2024-01-07T05:30:14;4.20;1.00
4795;DHT22;2411;47.060;15.064;2024-01-07T05:32:42;4.20;1.00
4795;DHT22;2411;47.060;15.064;2024-01-07T05:35:09;4.10;1.00
4795;DHT22;2411;47.060;15.064;2024-01-07T05:37:37;4.20;1.00
4795;DHT22;2411;47.060;15.064;2024-01-07T05:40:04;4.30;1.00
4795;DHT22;2411;47.060;15.064;2024-01-07T05:42:33;4.20;1.00
4795;DHT22;2411;47.060;15.064;2024-01-07T05:45:01;4.10;1.00
4795;DHT22;2411;47.060;15.064;2024-01-07T05:47:29;4.10;1.00
4795;DHT22;2411;47.060;15.064;2024-01-07T05:49:57;4.00;1.00
4795;DHT22;2411;47.060;15.064;2024-01-07T05:52:24;3.90;1.00
4795;DHT22;2411;47.060;15.064;2024-01-07T05:54:51;3.90;1.00
4795;DHT22;2411;47.060;15.064;2024-01-07T05:57:18;3.90;1.00
4795;DHT22;2411;47.060;15.064;2024-01-07T05:59:46;3.90;1.00
4795;DHT22;2411;47.060;15.064;2024-01-07T06:02:15;3.90;1.00
4795;DHT22;2411;47.060;15.064;2024-01-07T06:04:44;3.90;1.00
4795;DHT22;2411;47.060;15.064;2024-01-07T06:07:11;3.80;1.00
4795;DHT22;2411;47.060;15.064;2024-01-07T06:09:38;3.80;1.00
4795;DHT22;2411;47.060;15.064;2024-01-07T06:12:06;3.90;1.00
4795;DHT22;2411;47.060;15.064;2024-01-07T06:14:34;3.90;1.00
4795;DHT22;2411;47.060;15.064;2024-01-07T06:17:01;3.90;1.00
4795;DHT22;2411;47.060;15.064;2024-01-07T06:19:29;3.80;1.00
4795;DHT22;2411;47.060;15.064;2024-01-07T06:21:57;3.90;1.00
4795;DHT22;2411;47.060;15.064;2024-01-07T06:24:24;3.90;1.00
4795;DHT22;2411;47.060;15.064;2024-01-07T06:26:51;3.90;1.00
4795;DHT22;2411;47.060;15.064;2024-01-07T06:29:19;4.00;1.00
4795;DHT22;2411;47.060;15.064;2024-01-07T06:31:46;4.00;1.00
4795;DHT22;2411;47.060;15.064;2024-01-07T06:34:13;4.10;1.00
4795;DHT22;2411;47.060;15.064;2024-01-07T06:36:41;4.10;1.00
4795;DHT22;2411;47.060;15.064;2024-01-07T06:39:09;4.10;1.00
4795;DHT22;2411;47.060;15.064;2024-01-07T06:41:36;4.10;1.00
4795;DHT22;2411;47.060;15.064;2024-01-07T06:44:03;4.10;1.00
4795;DHT22;2411;47.060;15.064;2024-01-07T06:46:31;4.00;1.00
4795;DHT22;2411;47.060;15.064;2024-01-07T06:48:58;4.00;1.00
4795;DHT22;2411;47.060;15.064;2024-01-07T06:51:26;4.00;1.00
4795;DHT22;2411;47.060;15.064;2024-01-07T06:53:53;4.10;1.00
4795;DHT22;2411;47.060;15.064;2024-01-07T06:56:20;4.10;1.00
4795;DHT22;2411;47.060;15.064;2024-01-07T06:58:47;4.20;1.00
4795;DHT22;2411;47.060;15.064;2024-01-07T07:01:20;4.20;1.00
4795;DHT22;2411;47.060;15.064;2024-01-07T07:03:49;4.20;1.00
4795;DHT22;2411;47.060;15.064;2024-01-07T07:06:17;4.30;1.00
4795;DHT22;2411;47.060;15.064;2024-01-07T07:08:45;4.30;1.00
4795;DHT22;2411;47.060;15.064;2024-01-07T07:11:12;4.20;1.00
4795;DHT22;2411;47.060;15.064;2024-01-07T07:13:39;4.20;1.00
4795;DHT22;2411;47.060;15.064;2024-01-07T07:16:06;4.20;1.00
4795;DHT22;2411;47.060;15.064;2024-01-07T07:18:34;4.30;1.00
4795;DHT22;2411;47.060;15.064;2024-01-07T07:21:02;4.30;1.00
4795;DHT22;2411;47.060;15.064;2024-01-07T07:23:29;4.30;1.00
4795;DHT22;2411;47.060;15.064;2024-01-07T07:25:57;4.30;1.00
4795;DHT22;2411;47.060;15.064;2024-01-07T07:28:24;4.30;1.00
4795;DHT22;2411;47.060;15.064;2024-01-07T07:30:52;4.30;1.00
4795;DHT22;2411;47.060;15.064;2024-01-07T07:33:20;4.30;1.00
4795;DHT22;2411;47.060;15.064;2024-01-07T07:35:47;4.30;1.00
4795;DHT22;2411;47.060;15.064;2024-01-07T07:38:14;4.30;1.00
4795;DHT22;2411;47.060;15.064;2024-01-07T07:40:42;4.40;1.00
4795;DHT22;2411;47.060;15.064;2024-01-07T07:43:09;4.30;1.00
4795;DHT22;2411;47.060;15.064;2024-01-07T07:45:37;4.40;1.00
4795;DHT22;2411;47.060;15.064;2024-01-07T07:48:04;4.40;1.00
4795;DHT22;2411;47.060;15.064;2024-01-07T07:50:32;4.40;1.00
4795;DHT22;2411;47.060;15.064;2024-01-07T07:52:59;4.40;1.00
4795;DHT22;2411;47.060;15.064;2024-01-07T07:55:26;4.40;1.00
4795;DHT22;2411;47.060;15.064;2024-01-07T07:57:54;4.30;1.00
4795;DHT22;2411;47.060;15.064;2024-01-07T08:00:21;4.30;1.00
4795;DHT22;2411;47.060;15.064;2024-01-07T08:02:48;4.30;1.00
4795;DHT22;2411;47.060;15.064;2024-01-07T08:05:16;4.30;1.00
4795;DHT22;2411;47.060;15.064;2024-01-07T08:07:43;4.30;1.00
4795;DHT22;2411;47.060;15.064;2024-01-07T08:10:11;4.30;1.00
4795;DHT22;2411;47.060;15.064;2024-01-07T08:12:38;4.30;1.00
4795;DHT22;2411;47.060;15.064;2024-01-07T08:15:06;4.40;1.00
4795;DHT22;2411;47.060;15.064;2024-01-07T08:17:33;4.40;1.00
4795;DHT22;2411;47.060;15.064;2024-01-07T08:20:01;4.40;1.00
4795;DHT22;2411;47.060;15.064;2024-01-07T08:22:29;4.40;1.00
4795;DHT22;2411;47.060;15.064;2024-01-07T08:24:56;4.50;1.00
4795;DHT22;2411;47.060;15.064;2024-01-07T08:27:23;4.50;1.00
4795;DHT22;2411;47.060;15.064;2024-01-07T08:29:50;4.50;1.00
4795;DHT22;2411;47.060;15.064;2024-01-07T08:32:18;4.50;1.00
4795;DHT22;2411;47.060;15.064;2024-01-07T08:34:46;4.40;1.00
4795;DHT22;2411;47.060;15.064;2024-01-07T08:37:13;4.50;1.00
4795;DHT22;2411;47.060;15.064;2024-01-07T08:39:40;4.60;1.00
4795;DHT22;2411;47.060;15.064;2024-01-07T08:42:07;4.60;1.00
4795;DHT22;2411;47.060;15.064;2024-01-07T08:44:35;4.60;1.00
4795;DHT22;2411;47.060;15.064;2024-01-07T08:47:02;4.70;1.00
4795;DHT22;2411;47.060;15.064;2024-01-07T08:49:31;4.60;1.00
4795;DHT22;2411;47.060;15.064;2024-01-07T08:52:02;4.70;1.00
4795;DHT22;2411;47.060;15.064;2024-01-07T08:54:29;4.70;1.00
4795;DHT22;2411;47.060;15.064;2024-01-07T08:56:56;4.70;1.00
4795;DHT22;2411;47.060;15.064;2024-01-07T08:59:23;4.60;1.00
4795;DHT22;2411;47.060;15.064;2024-01-07T09:01:51;4.70;1.00
4795;DHT22;2411;47.060;15.064;2024-01-07T09:04:18;4.70;1.00
4795;DHT22;2411;47.060;15.064;2024-01-07T09:06:45;4.70;1.00
4795;DHT22;2411;47.060;15.064;2024-01-07T09:09:13;4.70;1.00
4795;DHT22;2411;47.060;15.064;2024-01-07T09:11:40;4.70;1.00
4795;DHT22;2411;47.060;15.064;2024-01-07T09:14:07;4.80;1.00
4795;DHT22;2411;47.060;15.064;2024-01-07T09:16:35;4.80;1.00
4795;DHT22;2411;47.060;15.064;2024-01-07T09:19:02;4.80;1.00
4795;DHT22;2411;47.060;15.064;2024-01-07T09:21:30;4.80;1.00
4795;DHT22;2411;47.060;15.064;2024-01-07T09:23:57;4.90;1.00
4795;DHT22;2411;47.060;15.064;2024-01-07T09:26:24;4.90;1.00
4795;DHT22;2411;47.060;15.064;2024-01-07T09:28:51;5.00;1.00
4795;DHT22;2411;47.060;15.064;2024-01-07T09:31:18;5.00;1.00
4795;DHT22;2411;47.060;15.064;2024-01-07T09:33:46;5.00;1.00
4795;DHT22;2411;47.060;15.064;2024-01-07T09:36:13;5.10;1.00
4795;DHT22;2411;47.060;15.064;2024-01-07T09:38:55;5.10;1.00
4795;DHT22;2411;47.060;15.064;2024-01-07T09:41:22;5.20;1.00
4795;DHT22;2411;47.060;15.064;2024-01-07T09:43:51;5.20;1.00
4795;DHT22;2411;47.060;15.064;2024-01-07T09:46:19;5.30;1.00
4795;DHT22;2411;47.060;15.064;2024-01-07T09:48:46;5.30;1.00
4795;DHT22;2411;47.060;15.064;2024-01-07T09:51:14;5.30;1.00
4795;DHT22;2411;47.060;15.064;2024-01-07T09:53:44;5.30;1.00
4795;DHT22;2411;47.060;15.064;2024-01-07T09:56:49;5.40;1.00
4795;DHT22;2411;47.060;15.064;2024-01-07T09:59:17;5.40;1.00
4795;DHT22;2411;47.060;15.064;2024-01-07T10:01:46;5.40;1.00
4795;DHT22;2411;47.060;15.064;2024-01-07T10:04:16;5.50;1.00
4795;DHT22;2411;47.060;15.064;2024-01-07T10:06:43;5.50;1.00
4795;DHT22;2411;47.060;15.064;2024-01-07T10:09:12;5.50;1.00
4795;DHT22;2411;47.060;15.064;2024-01-07T10:11:39;5.40;1.00
4795;DHT22;2411;47.060;15.064;2024-01-07T10:14:07;5.50;1.00
4795;DHT22;2411;47.060;15.064;2024-01-07T10:16:34;5.50;1.00
4795;DHT22;2411;47.060;15.064;2024-01-07T10:19:01;5.50;1.00
4795;DHT22;2411;47.060;15.064;2024-01-07T10:21:29;5.50;1.00
4795;DHT22;2411;47.060;15.064;2024-01-07T10:24:09;5.60;1.00
4795;DHT22;2411;47.060;15.064;2024-01-07T10:26:40;5.60;1.00
4795;DHT22;2411;47.060;15.064;2024-01-07T10:29:08;5.60;1.00
4795;DHT22;2411;47.060;15.064;2024-01-07T10:31:38;5.60;1.00
4795;DHT22;2411;47.060;15.064;2024-01-07T10:34:09;5.60;1.00
4795;DHT22;2411;47.060;15.064;2024-01-07T10:36:38;5.60;1.00
4795;DHT22;2411;47.060;15.064;2024-01-07T10:39:06;5.60;1.00
4795;DHT22;2411;47.060;15.064;2024-01-07T10:41:35;5.70;1.00
4795;DHT22;2411;47.060;15.064;2024-01-07T10:44:04;5.70;1.00
4795;DHT22;2411;47.060;15.064;2024-01-07T10:46:33;6.00;1.00
4795;DHT22;2411;47.060;15.064;2024-01-07T10:49:07;5.80;1.00
4795;DHT22;2411;47.060;15.064;2024-01-07T10:51:34;5.80;1.00
4795;DHT22;2411;47.060;15.064;2024-01-07T10:54:02;5.80;1.00
4795;DHT22;2411;47.060;15.064;2024-01-07T10:56:44;5.70;1.00
4795;DHT22;2411;47.060;15.064;2024-01-07T10:59:12;5.70;1.00
4795;DHT22;2411;47.060;15.064;2024-01-07T11:01:40;5.80;1.00
4795;DHT22;2411;47.060;15.064;2024-01-07T11:04:20;5.90;1.00
4795;DHT22;2411;47.060;15.064;2024-01-07T11:07:18;5.90;1.00
4795;DHT22;2411;47.060;15.064;2024-01-07T11:10:03;5.90;1.00
4795;DHT22;2411;47.060;15.064;2024-01-07T11:12:32;5.90;1.00
4795;DHT22;2411;47.060;15.064;2024-01-07T11:15:00;6.00;1.00
4795;DHT22;2411;47.060;15.064;2024-01-07T11:17:43;6.00;1.00
4795;DHT22;2411;47.060;15.064;2024-01-07T11:20:19;6.00;1.00
4795;DHT22;2411;47.060;15.064;2024-01-07T11:22:47;6.00;1.00
4795;DHT22;2411;47.060;15.064;2024-01-07T11:25:31;6.00;1.00
4795;DHT22;2411;47.060;15.064;2024-01-07T11:28:00;6.10;1.00
4795;DHT22;2411;47.060;15.064;2024-01-07T11:30:28;6.10;1.00
4795;DHT22;2411;47.060;15.064;2024-01-07T11:33:00;6.20;1.00
4795;DHT22;2411;47.060;15.064;2024-01-07T11:35:56;6.20;1.00
4795;DHT22;2411;47.060;15.064;2024-01-07T11:38:24;6.20;1.00
4795;DHT22;2411;47.060;15.064;2024-01-07T11:40:51;6.20;1.00
4795;DHT22;2411;47.060;15.064;2024-01-07T11:43:19;6.10;1.00
4795;DHT22;2411;47.060;15.064;2024-01-07T11:45:46;6.20;1.00
4795;DHT22;2411;47.060;15.064;2024-01-07T11:48:14;6.20;1.00
4795;DHT22;2411;47.060;15.064;2024-01-07T11:50:42;6.20;1.00
4795;DHT22;2411;47.060;15.064;2024-01-07T11:53:13;6.10;1.00
4795;DHT22;2411;47.060;15.064;2024-01-07T11:55:41;6.20;1.00
4795;DHT22;2411;47.060;15.064;2024-01-07T11:58:08;6.10;1.00
4795;DHT22;2411;47.060;15.064;2024-01-07T12:00:35;6.10;1.00
4795;DHT22;2411;47.060;15.064;2024-01-07T12:03:03;6.20;1.00
4795;DHT22;2411;47.060;15.064;2024-01-07T12:05:31;6.20;1.00
4795;DHT22;2411;47.060;15.064;2024-01-07T12:08:00;6.30;1.00
4795;DHT22;2411;47.060;15.064;2024-01-07T12:10:39;6.20;1.00
4795;DHT22;2411;47.060;15.064;2024-01-07T12:13:07;6.20;1.00
4795;DHT22;2411;47.060;15.064;2024-01-07T12:15:37;6.30;1.00
4795;DHT22;2411;47.060;15.064;2024-01-07T12:18:04;6.20;1.00
4795;DHT22;2411;47.060;15.064;2024-01-07T12:20:32;6.00;1.00
4795;DHT22;2411;47.060;15.064;2024-01-07T12:23:07;6.00;1.00
4795;DHT22;2411;47.060;15.064;2024-01-07T12:25:35;6.10;1.00
4795;DHT22;2411;47.060;15.064;2024-01-07T12:28:06;6.10;1.00
4795;DHT22;2411;47.060;15.064;2024-01-07T12:30:33;6.20;1.00
4795;DHT22;2411;47.060;15.064;2024-01-07T12:33:04;6.20;1.00
4795;DHT22;2411;47.060;15.064;2024-01-07T12:35:32;6.20;1.00
4795;DHT22;2411;47.060;15.064;2024-01-07T12:38:01;6.30;1.00
4795;DHT22;2411;47.060;15.064;2024-01-07T12:40:28;6.20;1.00
4795;DHT22;2411;47.060;15.064;2024-01-07T12:42:56;6.20;1.00
4795;DHT22;2411;47.060;15.064;2024-01-07T12:45:24;6.20;1.00
4795;DHT22;2411;47.060;15.064;2024-01-07T12:47:51;6.20;1.00
4795;DHT22;2411;47.060;15.064;2024-01-07T12:50:21;6.20;1.00
4795;DHT22;2411;47.060;15.064;2024-01-07T12:52:50;6.20;1.00
4795;DHT22;2411;47.060;15.064;2024-01-07T12:55:17;6.20;1.00
4795;DHT22;2411;47.060;15.064;2024-01-07T12:57:45;6.10;1.00
4795;DHT22;2411;47.060;15.064;2024-01-07T13:00:12;6.10;1.00
4795;DHT22;2411;47.060;15.064;2024-01-07T13:02:39;6.00;1.00
4795;DHT22;2411;47.060;15.064;2024-01-07T13:05:07;5.90;1.00
4795;DHT22;2411;47.060;15.064;2024-01-07T13:07:35;5.90;1.00
4795;DHT22;2411;47.060;15.064;2024-01-07T13:10:02;5.90;1.00
4795;DHT22;2411;47.060;15.064;2024-01-07T13:12:29;6.00;1.00
4795;DHT22;2411;47.060;15.064;2024-01-07T13:15:13;6.00;1.00
4795;DHT22;2411;47.060;15.064;2024-01-07T13:17:44;6.00;1.00
4795;DHT22;2411;47.060;15.064;2024-01-07T13:20:11;6.00;1.00
4795;DHT22;2411;47.060;15.064;2024-01-07T13:22:39;6.00;1.00
4795;DHT22;2411;47.060;15.064;2024-01-07T13:25:07;6.00;1.00
4795;DHT22;2411;47.060;15.064;2024-01-07T13:27:35;5.90;1.00
4795;DHT22;2411;47.060;15.064;2024-01-07T13:30:07;5.90;1.00
4795;DHT22;2411;47.060;15.064;2024-01-07T13:32:34;5.90;1.00
4795;DHT22;2411;47.060;15.064;2024-01-07T13:35:05;5.80;1.00
4795;DHT22;2411;47.060;15.064;2024-01-07T13:37:33;5.90;1.00
4795;DHT22;2411;47.060;15.064;2024-01-07T13:40:00;5.80;1.00
4795;DHT22;2411;47.060;15.064;2024-01-07T13:42:28;5.80;1.00
4795;DHT22;2411;47.060;15.064;2024-01-07T13:44:55;5.80;1.00
4795;DHT22;2411;47.060;15.064;2024-01-07T13:47:22;5.70;1.00
4795;DHT22;2411;47.060;15.064;2024-01-07T13:49:50;5.70;1.00
4795;DHT22;2411;47.060;15.064;2024-01-07T13:52:17;5.70;1.00
4795;DHT22;2411;47.060;15.064;2024-01-07T13:54:44;5.60;1.00
4795;DHT22;2411;47.060;15.064;2024-01-07T13:57:12;5.60;1.00
4795;DHT22;2411;47.060;15.064;2024-01-07T13:59:40;5.60;1.00
4795;DHT22;2411;47.060;15.064;2024-01-07T14:02:08;5.50;1.00
4795;DHT22;2411;47.060;15.064;2024-01-07T14:04:36;5.50;1.00
4795;DHT22;2411;47.060;15.064;2024-01-07T14:07:03;5.50;1.00
4795;DHT22;2411;47.060;15.064;2024-01-07T14:09:31;5.50;1.00
4795;DHT22;2411;47.060;15.064;2024-01-07T14:11:59;5.50;1.00
4795;DHT22;2411;47.060;15.064;2024-01-07T14:14:26;5.50;1.00
4795;DHT22;2411;47.060;15.064;2024-01-07T14:16:53;5.50;1.00
4795;DHT22;2411;47.060;15.064;2024-01-07T14:19:20;5.50;1.00
4795;DHT22;2411;47.060;15.064;2024-01-07T14:21:49;5.50;1.00
4795;DHT22;2411;47.060;15.064;2024-01-07T14:24:19;5.50;1.00
4795;DHT22;2411;47.060;15.064;2024-01-07T14:26:46;5.40;1.00
4795;DHT22;2411;47.060;15.064;2024-01-07T14:29:13;5.40;1.00
4795;DHT22;2411;47.060;15.064;2024-01-07T14:31:44;5.40;1.00
4795;DHT22;2411;47.060;15.064;2024-01-07T14:34:13;5.40;1.00
4795;DHT22;2411;47.060;15.064;2024-01-07T14:36:41;5.40;1.00
4795;DHT22;2411;47.060;15.064;2024-01-07T14:39:10;5.30;1.00
4795;DHT22;2411;47.060;15.064;2024-01-07T14:41:38;5.40;1.00
4795;DHT22;2411;47.060;15.064;2024-01-07T14:44:05;5.40;1.00
4795;DHT22;2411;47.060;15.064;2024-01-07T14:46:37;5.30;1.00
4795;DHT22;2411;47.060;15.064;2024-01-07T14:49:04;5.30;1.00
4795;DHT22;2411;47.060;15.064;2024-01-07T14:51:32;5.30;1.00
4795;DHT22;2411;47.060;15.064;2024-01-07T14:53:59;5.30;1.00
4795;DHT22;2411;47.060;15.064;2024-01-07T14:56:27;5.30;1.00
4795;DHT22;2411;47.060;15.064;2024-01-07T14:58:54;5.20;1.00
4795;DHT22;2411;47.060;15.064;2024-01-07T15:01:22;5.10;1.00
4795;DHT22;2411;47.060;15.064;2024-01-07T15:03:49;5.10;1.00
4795;DHT22;2411;47.060;15.064;2024-01-07T15:06:17;5.10;1.00
4795;DHT22;2411;47.060;15.064;2024-01-07T15:08:44;5.10;1.00
4795;DHT22;2411;47.060;15.064;2024-01-07T15:11:12;5.00;1.00
4795;DHT22;2411;47.060;15.064;2024-01-07T15:13:39;5.00;1.00
4795;DHT22;2411;47.060;15.064;2024-01-07T15:16:07;5.00;1.00
4795;DHT22;2411;47.060;15.064;2024-01-07T15:18:34;5.00;1.00
4795;DHT22;2411;47.060;15.064;2024-01-07T15:21:05;4.90;1.00
4795;DHT22;2411;47.060;15.064;2024-01-07T15:23:32;4.80;1.00
4795;DHT22;2411;47.060;15.064;2024-01-07T15:26:00;4.80;1.00
4795;DHT22;2411;47.060;15.064;2024-01-07T15:28:28;4.80;1.00
4795;DHT22;2411;47.060;15.064;2024-01-07T15:30:55;4.80;1.00
4795;DHT22;2411;47.060;15.064;2024-01-07T15:33:23;4.80;1.00
4795;DHT22;2411;47.060;15.064;2024-01-07T15:35:50;4.80;1.00
4795;DHT22;2411;47.060;15.064;2024-01-07T15:38:17;4.70;1.00
4795;DHT22;2411;47.060;15.064;2024-01-07T15:40:45;4.80;1.00
4795;DHT22;2411;47.060;15.064;2024-01-07T15:43:12;4.70;1.00
4795;DHT22;2411;47.060;15.064;2024-01-07T15:45:40;4.70;1.00
4795;DHT22;2411;47.060;15.064;2024-01-07T15:48:07;4.70;1.00
4795;DHT22;2411;47.060;15.064;2024-01-07T15:50:34;4.60;1.00
4795;DHT22;2411;47.060;15.064;2024-01-07T15:53:02;4.60;1.00
4795;DHT22;2411;47.060;15.064;2024-01-07T15:55:37;4.60;1.00
4795;DHT22;2411;47.060;15.064;2024-01-07T15:58:04;4.70;1.00
4795;DHT22;2411;47.060;15.064;2024-01-07T16:00:31;4.60;1.00
4795;DHT22;2411;47.060;15.064;2024-01-07T16:02:59;4.60;1.00
4795;DHT22;2411;47.060;15.064;2024-01-07T16:05:26;4.60;1.00
4795;DHT22;2411;47.060;15.064;2024-01-07T16:07:55;4.60;1.00
4795;DHT22;2411;47.060;15.064;2024-01-07T16:10:22;4.50;1.00
4795;DHT22;2411;47.060;15.064;2024-01-07T16:12:49;4.60;1.00
4795;DHT22;2411;47.060;15.064;2024-01-07T16:15:16;4.60;1.00
4795;DHT22;2411;47.060;15.064;2024-01-07T16:17:44;4.60;1.00
4795;DHT22;2411;47.060;15.064;2024-01-07T16:20:11;4.50;1.00
4795;DHT22;2411;47.060;15.064;2024-01-07T16:22:39;4.50;1.00